Time;durP1;ratioP1;P1;durP2;ratioP2;P2;SDS_P1;SDS_P2;PMS_P1;PMS_P2;Temp;Humidity;BMP_temperature;BMP_pressure;BME280_temperature;BME280_humidity;BME280_pressure;Samples;Min_cycle;Max_cycle;Signal;HPM_P1;HPM_P2
2021/12/06 00:01:46;;;;;;;;;1.00;1.00;;;;;21.97;33.44;100573.28;5100424;27;45449;-51
2021/12/06 00:04:25;;;;;;;;;1.25;1.25;;;;;21.93;33.29;100581.38;5100193;27;45616;-55
2021/12/06 00:06:58;;;;;;;;;0.75;0.75;;;;;21.92;33.57;100574.41;5100421;27;45704;-53
2021/12/06 00:09:27;;;;;;;;;1.50;1.25;;;;;21.92;33.29;100578.84;5100299;27;45894;-57
2021/12/06 00:11:57;;;;;;;;;1.25;0.50;;;;;21.90;33.82;100581.56;5100348;27;45381;-49
2021/12/06 00:14:29;;;;;;;;;0.00;0.00;;;;;21.89;33.74;100584.31;5100164;27;45429;-56
2021/12/06 00:17:01;;;;;;;;;2.00;0.00;;;;;21.88;33.74;100587.91;5099910;27;46385;-51
2021/12/06 00:19:28;;;;;;;;;1.00;1.00;;;;;21.86;33.87;100592.41;5100078;27;45454;-52
2021/12/06 00:21:56;;;;;;;;;1.00;1.00;;;;;21.86;33.57;100590.66;5100244;27;45319;-54
2021/12/06 00:24:22;;;;;;;;;0.50;0.50;;;;;21.83;33.62;100593.47;5100250;27;45330;-50
2021/12/06 00:26:48;;;;;;;;;1.00;1.00;;;;;21.83;33.55;100595.28;5100124;27;45519;-48
2021/12/06 00:29:13;;;;;;;;;0.75;0.75;;;;;21.82;33.58;100591.78;5099838;27;45288;-51
2021/12/06 00:31:39;;;;;;;;;1.00;1.00;;;;;21.80;33.47;100591.03;5081453;27;45465;-49
2021/12/06 00:34:12;;;;;;;;;1.50;1.00;;;;;21.80;33.67;100585.75;5081478;27;45347;-56
2021/12/06 00:36:40;;;;;;;;;1.00;1.00;;;;;21.77;33.59;100596.53;5099448;27;46670;-60
2021/12/06 00:39:09;;;;;;;;;0.50;0.00;;;;;21.77;33.53;100601.81;5099560;27;45398;-61
2021/12/06 00:41:35;;;;;;;;;2.50;1.00;;;;;21.75;33.67;100603.69;5099855;27;45347;-55
2021/12/06 00:44:01;;;;;;;;;1.00;1.00;;;;;21.74;33.56;100607.25;5099792;27;45645;-60
2021/12/06 00:46:27;;;;;;;;;1.00;0.75;;;;;21.72;33.49;100619.69;5099585;27;47234;-51
2021/12/06 00:48:52;;;;;;;;;2.00;1.00;;;;;21.73;33.67;100624.03;5099827;27;45945;-52
2021/12/06 00:51:18;;;;;;;;;0.00;0.00;;;;;21.71;33.67;100620.63;5099771;27;45311;-52
2021/12/06 00:53:44;;;;;;;;;0.50;0.50;;;;;21.70;33.76;100624.22;5099990;27;45934;-48
2021/12/06 00:56:11;;;;;;;;;0.00;0.00;;;;;21.69;33.24;100626.03;5081003;27;47881;-50
2021/12/06 00:58:36;;;;;;;;;0.75;0.75;;;;;21.69;33.42;100631.31;5099383;27;45361;-48
2021/12/06 01:01:04;;;;;;;;;3.00;1.00;;;;;21.69;33.52;100641.00;5099399;27;45229;-48
2021/12/06 01:03:32;;;;;;;;;3.50;1.25;;;;;21.66;33.39;100639.41;5098419;27;45264;-48
2021/12/06 01:05:58;;;;;;;;;1.25;1.25;;;;;21.62;33.76;100632.63;5099024;27;45673;-51
2021/12/06 01:08:24;;;;;;;;;2.00;1.00;;;;;21.64;33.66;100632.53;5099638;27;45414;-47
2021/12/06 01:10:50;;;;;;;;;2.75;1.00;;;;;21.62;33.57;100646.66;5099740;27;46033;-47
2021/12/06 01:13:16;;;;;;;;;0.00;0.00;;;;;21.62;33.74;100648.44;5099550;27;45465;-49
2021/12/06 01:15:42;;;;;;;;;1.00;1.00;;;;;21.58;33.60;100645.13;5099087;27;45654;-51
2021/12/06 01:18:12;;;;;;;;;2.00;2.00;;;;;21.60;33.57;100653.00;5063127;27;46101;-52
2021/12/06 01:20:49;;;;;;;;;0.00;0.00;;;;;21.59;33.35;100652.13;5099114;27;45354;-53
2021/12/06 01:23:18;;;;;;;;;1.75;1.75;;;;;21.58;33.50;100660.94;5099346;27;45386;-53
2021/12/06 01:41:18;;;;;;;;;1.50;1.00;;;;;21.51;33.74;100677.25;5098816;27;45434;-48
2021/12/06 01:44:09;;;;;;;;;0.75;0.75;;;;;21.48;33.45;100675.66;5098931;27;45302;-49
2021/12/06 01:46:39;;;;;;;;;2.75;1.25;;;;;21.48;33.45;100686.19;5098591;27;45434;-49
2021/12/06 01:49:07;;;;;;;;;1.00;1.00;;;;;21.45;33.33;100687.25;5098586;27;45683;-50
2021/12/06 01:51:33;;;;;;;;;0.25;0.25;;;;;21.46;33.28;100686.31;5098747;27;45332;-47
2021/12/06 01:53:58;;;;;;;;;1.00;1.00;;;;;21.46;33.76;100688.06;5098821;27;45444;-48
2021/12/06 01:56:24;;;;;;;;;1.00;1.00;;;;;21.45;33.72;100696.91;5080342;27;47749;-47
2021/12/06 01:58:49;;;;;;;;;1.75;1.75;;;;;21.44;33.49;100697.88;5098334;27;45382;-52
2021/12/06 02:01:15;;;;;;;;;1.00;1.00;;;;;21.44;33.77;100708.44;5098501;27;45399;-49
2021/12/06 02:03:40;;;;;;;;;1.00;1.00;;;;;21.41;33.59;100713.88;5098520;27;45548;-48
2021/12/06 02:06:06;;;;;;;;;1.00;1.00;;;;;21.41;33.55;100714.72;5098101;27;46173;-49
2021/12/06 02:08:31;;;;;;;;;0.75;0.75;;;;;21.41;33.34;100705.97;5098370;27;45485;-51
2021/12/06 02:11:01;;;;;;;;;1.00;1.00;;;;;21.40;33.92;100722.75;5098622;27;45448;-47
2021/12/06 02:13:36;;;;;;;;;2.00;1.00;;;;;21.40;33.93;100720.09;5098620;27;45435;-50
2021/12/06 02:21:18;;;;;;;;;0.00;0.00;;;;;21.37;33.76;100730.81;5057381;28;45336;-49
2021/12/06 02:23:45;;;;;;;;;1.25;1.25;;;;;21.36;34.03;100734.41;5057894;28;45465;-55
2021/12/06 02:26:12;;;;;;;;;0.75;0.75;;;;;21.35;34.04;100736.19;5057238;28;46210;-54
2021/12/06 02:28:37;;;;;;;;;1.00;1.00;;;;;21.31;33.58;100730.28;5057156;28;45797;-56
2021/12/06 02:31:02;;;;;;;;;2.00;2.00;;;;;21.33;33.69;100735.44;5057340;28;45500;-51
2021/12/06 02:33:28;;;;;;;;;1.00;1.00;;;;;21.33;33.53;100735.44;5057497;28;45320;-55
2021/12/06 02:35:54;;;;;;;;;1.25;1.00;;;;;21.33;33.65;100738.06;5057044;28;46345;-48
2021/12/06 02:38:20;;;;;;;;;2.00;0.50;;;;;21.31;33.89;100734.69;5038972;28;45897;-47
2021/12/06 02:40:45;;;;;;;;;1.00;1.00;;;;;21.31;33.42;100734.69;5057524;28;45497;-51
2021/12/06 02:43:13;;;;;;;;;1.00;1.00;;;;;21.30;33.87;100733.84;5039166;28;45332;-51
2021/12/06 02:45:40;;;;;;;;;2.75;1.00;;;;;21.30;33.53;100735.63;5038819;28;48452;-48
2021/12/06 02:48:08;;;;;;;;;0.75;0.75;;;;;21.28;34.06;100735.72;5038823;28;45264;-48
2021/12/06 02:50:44;;;;;;;;;2.00;1.25;;;;;21.27;33.59;100731.38;5057117;28;45303;-48
2021/12/06 02:53:10;;;;;;;;;3.00;1.25;;;;;21.25;33.95;100730.63;5057113;28;46022;-51
2021/12/06 02:55:36;;;;;;;;;1.00;1.00;;;;;21.25;33.58;100728.00;5056689;28;47393;-47
2021/12/06 02:58:17;;;;;;;;;2.00;1.00;;;;;21.26;34.27;100732.31;5056672;28;45740;-50
2021/12/06 03:00:54;;;;;;;;;1.00;1.00;;;;;21.26;33.89;100728.84;5056723;28;45287;-51
2021/12/06 03:03:21;;;;;;;;;1.00;1.00;;;;;21.30;33.85;100736.47;5039311;28;45473;-51
2021/12/06 03:05:50;;;;;;;;;2.00;2.00;;;;;21.34;34.43;100736.28;5056958;28;45338;-49
2021/12/06 03:08:40;;;;;;;;;4.50;1.00;;;;;21.39;34.10;100747.41;5056915;28;45201;-48
2021/12/06 03:11:09;;;;;;;;;1.50;1.00;;;;;21.43;34.39;100747.13;5056640;28;45397;-51
2021/12/06 03:13:35;;;;;;;;;2.50;1.25;;;;;21.48;33.99;100754.75;5038770;28;45582;-51
2021/12/06 03:16:02;;;;;;;;;1.00;1.00;;;;;21.52;33.88;100756.28;5056716;28;45693;-53
2021/12/06 03:18:27;;;;;;;;;0.25;0.25;;;;;21.57;34.27;100758.63;5056247;28;45606;-55
2021/12/06 03:20:52;;;;;;;;;2.00;0.75;;;;;21.60;33.97;100764.59;5056603;28;45331;-50
2021/12/06 03:23:18;;;;;;;;;1.00;0.00;;;;;21.66;33.89;100773.09;5056989;28;45213;-51
2021/12/06 03:25:44;;;;;;;;;1.00;1.00;;;;;21.68;34.40;100772.03;5055499;28;46445;-52
2021/12/06 03:28:10;;;;;;;;;0.25;0.25;;;;;21.72;33.95;100764.78;5056500;28;45741;-52
2021/12/06 03:30:35;;;;;;;;;1.00;1.00;;;;;21.72;33.92;100770.88;5056442;28;45279;-48
2021/12/06 03:33:00;;;;;;;;;0.25;0.25;;;;;21.78;34.03;100773.16;5056671;28;45329;-47
2021/12/06 03:35:26;;;;;;;;;3.50;1.00;;;;;21.80;34.05;100774.88;5056009;28;46569;-50
2021/12/06 03:37:52;;;;;;;;;0.00;0.00;;;;;21.80;34.35;100772.22;5056713;28;45857;-52
2021/12/06 03:40:17;;;;;;;;;1.00;1.00;;;;;21.83;34.08;100772.03;5056762;28;45434;-52
2021/12/06 03:42:43;;;;;;;;;1.00;1.00;;;;;21.84;33.97;100760.53;5056569;28;45509;-55
2021/12/06 03:45:10;;;;;;;;;1.75;1.00;;;;;21.85;33.88;100767.50;5055909;28;45486;-52
2021/12/06 03:47:35;;;;;;;;;0.00;0.00;;;;;21.86;33.75;100775.34;5056155;28;45331;-53
2021/12/06 03:50:03;;;;;;;;;1.25;1.25;;;;;21.87;33.72;100771.75;5054773;28;45349;-52
2021/12/06 03:52:29;;;;;;;;;1.00;1.00;;;;;21.87;34.01;100768.25;5056469;28;45578;-52
2021/12/06 03:54:56;;;;;;;;;1.00;1.00;;;;;21.89;33.99;100783.03;5056033;28;46178;-53
2021/12/06 03:57:22;;;;;;;;;1.00;1.00;;;;;21.89;33.87;100780.41;5056290;28;45249;-55
2021/12/06 03:59:50;;;;;;;;;0.00;0.00;;;;;21.90;33.78;100787.38;5056488;28;45506;-52
2021/12/06 04:02:15;;;;;;;;;1.00;1.00;;;;;21.87;33.81;100782.31;5056255;28;45342;-49
2021/12/06 04:04:42;;;;;;;;;0.25;0.25;;;;;21.87;34.09;100779.66;5055634;28;46186;-51
2021/12/06 04:07:08;;;;;;;;;1.00;1.00;;;;;21.86;34.20;100796.44;5055897;28;45199;-47
2021/12/06 04:09:34;;;;;;;;;1.00;1.00;;;;;21.87;33.83;100803.41;5055959;28;45249;-46
2021/12/06 04:11:59;;;;;;;;;3.75;1.00;;;;;21.85;33.99;100810.56;5056141;28;45569;-48
2021/12/06 04:14:25;;;;;;;;;0.75;0.50;;;;;21.86;33.94;100821.97;5055723;28;45389;-47
2021/12/06 04:16:50;;;;;;;;;1.50;1.50;;;;;21.83;33.88;100824.81;5055980;28;45387;-52
2021/12/06 04:19:15;;;;;;;;;1.50;1.50;;;;;21.82;34.20;100829.22;5055700;28;45394;-48
2021/12/06 04:21:42;;;;;;;;;4.00;0.75;;;;;21.82;34.04;100831.84;5056015;28;45562;-47
2021/12/06 04:24:09;;;;;;;;;1.00;1.00;;;;;21.83;34.04;100835.38;5055682;28;45618;-50
2021/12/06 04:26:34;;;;;;;;;0.00;0.00;;;;;21.81;33.77;100824.88;5055762;28;45371;-49
2021/12/06 04:29:01;;;;;;;;;1.00;1.00;;;;;21.82;34.03;100831.03;5055874;28;45324;-48
2021/12/06 04:31:36;;;;;;;;;1.00;1.00;;;;;21.81;33.91;100835.44;5056066;28;45232;-49
2021/12/06 04:34:02;;;;;;;;;1.50;1.00;;;;;21.81;33.98;100840.72;5055397;28;45771;-47
2021/12/06 04:36:27;;;;;;;;;1.00;1.00;;;;;21.81;33.96;100835.44;5021658;28;45729;-50
2021/12/06 04:38:53;;;;;;;;;0.00;0.00;;;;;21.81;33.68;100832.78;5059523;28;45534;-48
2021/12/06 04:41:18;;;;;;;;;2.00;1.00;;;;;21.82;34.03;100836.31;5059230;28;45502;-48
2021/12/06 04:43:45;;;;;;;;;1.00;1.00;;;;;21.80;33.97;100839.00;5058763;28;46589;-48
2021/12/06 04:46:10;;;;;;;;;1.00;1.00;;;;;21.81;33.69;100845.16;5058918;28;45835;-48
2021/12/06 04:48:36;;;;;;;;;0.50;0.50;;;;;21.82;34.34;100852.13;5058810;28;45828;-50
2021/12/06 04:51:03;;;;;;;;;2.00;2.00;;;;;21.80;33.83;100865.41;5059111;28;45657;-49
2021/12/06 04:53:36;;;;;;;;;0.75;0.75;;;;;21.82;33.63;100874.06;5058778;28;45301;-48
2021/12/06 04:56:18;;;;;;;;;1.75;0.50;;;;;21.81;33.91;100869.72;5040653;28;45847;-50
2021/12/06 04:58:51;;;;;;;;;1.25;1.25;;;;;21.82;33.58;100874.06;5058774;28;45355;-50
2021/12/06 05:01:24;;;;;;;;;1.00;0.75;;;;;21.81;33.85;100876.81;5040601;28;45462;-54
2021/12/06 05:03:51;;;;;;;;;1.00;1.00;;;;;21.76;33.67;100875.28;5058220;28;46284;-48
2021/12/06 05:06:22;;;;;;;;;1.00;1.00;;;;;21.80;33.99;100881.22;5058693;28;45693;-48
2021/12/06 05:08:51;;;;;;;;;2.50;1.75;;;;;21.77;33.97;100873.50;5040678;28;45428;-49
2021/12/06 05:11:20;;;;;;;;;4.75;2.00;;;;;21.74;34.01;100877.16;5058826;28;45542;-49
2021/12/06 05:13:47;;;;;;;;;2.00;1.00;;;;;21.75;33.86;100891.22;5058332;28;45770;-50
2021/12/06 05:16:12;;;;;;;;;1.00;0.75;;;;;21.72;34.02;100886.94;5058529;28;45310;-52
2021/12/06 05:18:38;;;;;;;;;2.00;1.00;;;;;21.70;33.99;100891.50;5058319;28;45319;-49
2021/12/06 05:21:05;;;;;;;;;2.00;2.00;;;;;21.69;33.93;100889.81;5058639;28;45331;-48
2021/12/06 05:23:32;;;;;;;;;1.00;1.00;;;;;21.68;33.84;100887.22;5058217;28;45420;-49
2021/12/06 05:26:05;;;;;;;;;2.00;2.00;;;;;21.65;34.14;100885.63;5058625;28;45803;-51
2021/12/06 05:28:33;;;;;;;;;2.00;1.00;;;;;21.62;33.90;100889.31;5058746;28;45259;-48
2021/12/06 05:31:02;;;;;;;;;0.50;0.50;;;;;21.64;34.06;100891.00;5040688;28;45297;-52
2021/12/06 05:33:31;;;;;;;;;1.50;1.50;;;;;21.62;34.17;100899.84;5040490;28;47799;-49
2021/12/06 05:35:59;;;;;;;;;2.00;2.00;;;;;21.60;34.04;100904.38;5058448;28;45247;-49
2021/12/06 05:38:27;;;;;;;;;1.50;1.50;;;;;21.59;34.16;100915.84;5058319;28;45449;-49
2021/12/06 05:40:53;;;;;;;;;2.00;2.00;;;;;21.57;34.20;100912.41;5058402;28;45259;-49
2021/12/06 05:43:19;;;;;;;;;0.50;0.50;;;;;21.55;33.88;100908.19;5058006;28;46423;-48
2021/12/06 05:45:44;;;;;;;;;1.00;1.00;;;;;21.53;33.99;100916.19;5058009;28;45280;-49
2021/12/06 05:48:10;;;;;;;;;1.00;1.00;;;;;21.53;34.14;100910.06;5057464;28;45331;-50
2021/12/06 05:50:35;;;;;;;;;1.00;1.00;;;;;21.50;34.07;100911.09;5058280;28;45625;-55
2021/12/06 05:53:01;;;;;;;;;1.75;1.75;;;;;21.50;34.20;100921.63;5039692;28;45261;-50
2021/12/06 05:55:28;;;;;;;;;2.25;1.00;;;;;21.51;34.10;100925.97;5058323;28;45398;-51
2021/12/06 05:57:57;;;;;;;;;4.00;1.50;;;;;21.49;34.10;100925.22;5058137;28;45865;-52
2021/12/06 06:00:27;;;;;;;;;2.50;2.50;;;;;21.48;34.06;100928.78;5058011;28;45481;-51
2021/12/06 06:02:53;;;;;;;;;1.00;1.00;;;;;21.48;34.19;100931.41;5057512;28;47644;-56
2021/12/06 06:05:19;;;;;;;;;2.00;0.50;;;;;21.46;34.36;100925.38;5057568;28;45233;-57
2021/12/06 06:07:45;;;;;;;;;2.00;2.00;;;;;21.43;34.08;100925.59;5039553;28;45509;-54
2021/12/06 06:10:10;;;;;;;;;1.00;1.00;;;;;21.42;33.86;100935.25;5057953;28;45596;-52
2021/12/06 06:12:36;;;;;;;;;2.00;2.00;;;;;21.43;34.31;100928.22;5057442;28;45558;-53
2021/12/06 06:15:01;;;;;;;;;3.25;2.00;;;;;21.41;33.94;100932.72;5057511;28;45384;-56
2021/12/06 06:17:28;;;;;;;;;2.00;1.00;;;;;21.41;34.17;100941.47;5057760;28;45323;-56
2021/12/06 06:19:57;;;;;;;;;1.75;1.00;;;;;21.41;34.07;100945.91;5057735;28;45587;-53
2021/12/06 06:22:23;;;;;;;;;2.50;1.00;;;;;21.41;34.31;100949.38;5057296;28;46512;-51
2021/12/06 06:24:48;;;;;;;;;2.25;2.00;;;;;21.39;34.12;100947.78;5057126;28;45705;-49
2021/12/06 06:27:13;;;;;;;;;1.00;1.00;;;;;21.37;34.15;100947.00;5057523;28;45159;-48
2021/12/06 06:29:39;;;;;;;;;1.00;1.00;;;;;21.37;34.28;100957.56;5057537;28;45703;-49
2021/12/06 06:32:05;;;;;;;;;1.00;1.00;;;;;21.36;34.61;100953.22;5057239;28;46265;-49
2021/12/06 06:34:31;;;;;;;;;2.00;0.50;;;;;21.35;34.05;100955.03;5057249;28;45464;-51
2021/12/06 06:36:56;;;;;;;;;1.00;1.00;;;;;21.35;34.08;100956.78;5057570;28;45422;-52
2021/12/06 06:39:22;;;;;;;;;5.25;2.00;;;;;21.32;34.45;100957.81;5057465;28;45318;-51
2021/12/06 06:41:50;;;;;;;;;3.50;3.50;;;;;21.28;33.88;100959.78;5056902;28;46121;-48
2021/12/06 06:44:15;;;;;;;;;4.00;2.25;;;;;21.25;34.42;100961.75;5056974;28;45781;-49
2021/12/06 06:46:42;;;;;;;;;4.00;2.50;;;;;21.24;33.97;100962.69;5057371;28;45272;-49
2021/12/06 06:49:08;;;;;;;;;3.00;3.00;;;;;21.19;34.25;100952.41;5057448;28;45364;-48
2021/12/06 06:51:33;;;;;;;;;3.00;3.00;;;;;21.19;33.76;100957.69;5056787;28;45259;-52
2021/12/06 06:53:58;;;;;;;;;5.50;4.25;;;;;21.21;34.10;100961.09;5057229;28;45271;-54
2021/12/06 06:56:24;;;;;;;;;4.00;3.25;;;;;21.19;33.70;100955.03;5055791;28;45727;-55
2021/12/06 06:58:50;;;;;;;;;4.50;4.00;;;;;21.22;33.40;100959.28;5039105;28;45518;-54
2021/12/06 07:01:16;;;;;;;;;3.50;2.25;;;;;21.22;33.40;100964.56;5055639;28;46149;-52
2021/12/06 07:03:42;;;;;;;;;4.25;4.25;;;;;21.23;33.79;100975.00;5038668;28;46449;-53
2021/12/06 07:06:07;;;;;;;;;8.00;5.00;;;;;21.18;33.12;100969.16;5056818;28;45404;-49
2021/12/06 07:08:33;;;;;;;;;4.00;4.00;;;;;21.22;33.61;100977.72;5057142;28;45375;-48
2021/12/06 07:11:00;;;;;;;;;4.75;3.00;;;;;21.23;33.51;100985.53;5056913;28;46646;-51
2021/12/06 07:13:27;;;;;;;;;3.00;3.00;;;;;21.23;33.40;100987.34;5056626;28;45841;-48
2021/12/06 07:15:53;;;;;;;;;3.00;3.00;;;;;21.25;33.49;101002.13;5056530;28;45325;-52
2021/12/06 07:18:18;;;;;;;;;2.50;2.00;;;;;21.26;33.82;101003.00;5056764;28;45530;-49
2021/12/06 07:20:44;;;;;;;;;1.75;1.75;;;;;21.25;33.36;101002.13;5038352;28;47718;-51
2021/12/06 07:23:10;;;;;;;;;1.00;1.00;;;;;21.25;33.76;101007.41;5056450;28;45365;-50
2021/12/06 07:25:35;;;;;;;;;3.00;2.25;;;;;21.20;33.95;100998.91;5056355;28;45323;-48
2021/12/06 07:28:04;;;;;;;;;2.00;2.00;;;;;21.23;33.62;101004.00;5055731;28;45639;-51
2021/12/06 07:30:29;;;;;;;;;5.75;2.25;;;;;21.25;33.47;101006.56;5056721;28;45345;-52
2021/12/06 07:32:55;;;;;;;;;3.25;2.00;;;;;21.22;33.92;101007.56;5056330;28;45271;-52
2021/12/06 07:35:22;;;;;;;;;2.50;2.50;;;;;21.26;34.19;101011.75;5056322;28;45449;-52
2021/12/06 07:37:47;;;;;;;;;2.50;2.50;;;;;21.27;33.56;101016.06;5056456;28;45506;-49
2021/12/06 07:40:15;;;;;;;;;2.00;2.00;;;;;21.28;33.66;101015.16;5056099;28;45579;-48
2021/12/06 07:42:41;;;;;;;;;3.00;2.00;;;;;21.30;33.61;101009.78;5056261;28;45379;-51
2021/12/06 07:45:10;;;;;;;;;2.00;2.00;;;;;21.31;33.72;101006.22;5056088;28;45266;-50
2021/12/06 07:47:37;;;;;;;;;2.50;2.00;;;;;21.33;33.62;101011.41;5056427;28;45365;-51
2021/12/06 07:50:05;;;;;;;;;4.25;1.75;;;;;21.32;33.85;101007.91;5038564;28;46662;-52
2021/12/06 07:52:30;;;;;;;;;2.25;2.00;;;;;21.33;33.96;101011.41;5038238;28;45664;-51
2021/12/06 07:54:59;;;;;;;;;2.00;2.00;;;;;21.28;33.74;101004.59;5056233;28;45437;-49
2021/12/06 07:57:24;;;;;;;;;3.00;2.00;;;;;21.33;34.16;101019.31;5038299;28;45584;-49
2021/12/06 07:59:50;;;;;;;;;1.25;1.25;;;;;21.32;33.89;101018.47;5055990;28;45599;-51
2021/12/06 08:02:15;;;;;;;;;1.75;1.75;;;;;21.31;33.87;101022.91;5058368;28;45410;-47
2021/12/06 08:04:41;;;;;;;;;1.00;1.00;;;;;21.29;34.04;101013.34;5055911;28;45241;-51
2021/12/06 08:07:07;;;;;;;;;1.00;1.00;;;;;21.28;34.12;101017.78;5038237;28;45246;-51
2021/12/06 08:09:35;;;;;;;;;2.25;2.00;;;;;21.28;34.40;101014.28;5056202;28;46292;-55
2021/12/06 08:12:01;;;;;;;;;1.25;1.25;;;;;21.29;34.27;101018.63;5057721;28;45522;-55
2021/12/06 08:14:26;;;;;;;;;2.00;2.00;;;;;21.24;34.38;101005.69;5059456;28;45326;-54
2021/12/06 08:16:52;;;;;;;;;1.75;1.75;;;;;21.27;34.35;100996.78;5059072;28;45276;-50
2021/12/06 08:19:17;;;;;;;;;1.25;1.00;;;;;21.27;34.31;101000.25;5058993;28;46758;-51
2021/12/06 08:21:42;;;;;;;;;2.00;2.00;;;;;21.27;34.40;100996.78;5059386;28;45433;-52
2021/12/06 08:24:08;;;;;;;;;1.50;1.50;;;;;21.24;34.19;101000.44;5059294;28;45425;-53
2021/12/06 08:26:39;;;;;;;;;1.25;1.00;;;;;21.21;34.33;101000.63;5059834;28;45415;-48
2021/12/06 08:29:07;;;;;;;;;3.00;1.00;;;;;21.21;34.16;100997.13;5041803;28;46646;-49
2021/12/06 08:31:34;;;;;;;;;4.50;3.50;;;;;21.18;34.30;100990.25;5041374;28;45352;-55
2021/12/06 08:34:00;;;;;;;;;2.00;2.00;;;;;21.17;34.63;100993.81;5059353;28;45458;-52
2021/12/06 08:36:25;;;;;;;;;1.50;1.50;;;;;21.14;34.58;100980.78;5059417;28;45471;-51
2021/12/06 08:38:52;;;;;;;;;3.75;3.75;;;;;21.12;34.12;100998.47;5041033;28;47487;-50
2021/12/06 08:41:21;;;;;;;;;2.00;2.00;;;;;21.12;34.47;101003.75;5059173;28;45399;-47
2021/12/06 08:43:48;;;;;;;;;5.25;2.00;;;;;21.13;34.45;101000.16;5059042;28;45343;-52
2021/12/06 08:46:20;;;;;;;;;2.25;2.25;;;;;21.16;34.63;100994.75;5059520;28;45471;-56
2021/12/06 08:48:50;;;;;;;;;1.75;1.75;;;;;21.16;34.79;100997.38;5059038;28;45313;-45
2021/12/06 08:51:50;;;;;;;;;3.00;2.00;;;;;21.17;34.95;100994.66;5059206;28;45250;-46
2021/12/06 08:54:22;;;;;;;;;3.75;3.00;;;;;21.17;34.57;100999.91;5026264;28;45467;-53
2021/12/06 08:56:48;;;;;;;;;3.00;3.00;;;;;21.19;34.49;100983.16;5059083;28;45702;-49
2021/12/06 08:59:14;;;;;;;;;2.00;2.00;;;;;21.19;34.73;100985.81;5058738;28;46654;-52
2021/12/06 09:01:41;;;;;;;;;2.00;2.00;;;;;21.20;34.48;100987.50;5058747;28;45715;-52
2021/12/06 09:04:11;;;;;;;;;2.00;2.00;;;;;21.19;34.90;100986.66;5059186;28;45441;-53
2021/12/06 09:06:38;;;;;;;;;1.75;1.75;;;;;21.18;34.88;100984.97;5059333;28;45422;-57
2021/12/06 09:09:07;;;;;;;;;2.75;2.75;;;;;21.19;34.99;100991.94;5058822;28;45293;-55
2021/12/06 09:11:37;;;;;;;;;3.50;2.25;;;;;21.19;34.74;100994.56;5058651;28;45398;-54
2021/12/06 09:14:03;;;;;;;;;1.50;1.50;;;;;21.19;35.00;100994.56;5058640;28;45289;-49
2021/12/06 09:16:29;;;;;;;;;1.75;1.50;;;;;21.19;34.94;100994.56;5058973;28;45229;-48
2021/12/06 09:18:54;;;;;;;;;2.00;2.00;;;;;21.20;34.84;101000.69;5058257;28;45375;-50
2021/12/06 09:21:21;;;;;;;;;2.00;2.00;;;;;21.19;34.81;100997.22;5058478;28;45443;-53
2021/12/06 09:23:48;;;;;;;;;2.00;2.00;;;;;21.17;34.63;101005.19;5057479;28;45386;-54
2021/12/06 09:26:14;;;;;;;;;1.50;1.25;;;;;21.18;34.90;101011.31;5058621;28;45578;-50
2021/12/06 09:28:40;;;;;;;;;1.00;1.00;;;;;21.18;34.68;101016.59;5058274;28;45475;-50
2021/12/06 09:31:07;;;;;;;;;3.00;2.00;;;;;21.17;34.93;100993.81;5058499;28;45311;-50
2021/12/06 09:33:34;;;;;;;;;2.00;2.00;;;;;21.16;34.61;100995.59;5058554;28;45283;-50
2021/12/06 09:36:01;;;;;;;;;2.00;2.00;;;;;21.17;34.43;100999.06;5058666;28;45255;-48
2021/12/06 09:38:32;;;;;;;;;2.00;2.00;;;;;21.17;34.56;100999.06;5040214;28;47245;-51
2021/12/06 09:40:59;;;;;;;;;1.00;1.00;;;;;21.15;34.60;101011.47;5057988;28;45308;-50
2021/12/06 09:43:26;;;;;;;;;1.00;1.00;;;;;21.14;34.42;101007.16;5058051;28;45236;-50
2021/12/06 09:45:53;;;;;;;;;3.00;2.00;;;;;21.13;34.24;101000.16;5040296;28;45376;-46
2021/12/06 09:48:20;;;;;;;;;2.00;0.75;;;;;21.13;34.59;100997.53;5057891;28;45494;-54
2021/12/06 09:50:56;;;;;;;;;2.75;2.00;;;;;21.10;34.72;100995.09;5057919;28;45673;-52
2021/12/06 09:53:26;;;;;;;;;4.75;2.75;;;;;21.10;34.83;101003.00;5058054;28;45316;-54
2021/12/06 09:55:55;;;;;;;;;3.75;1.50;;;;;21.10;34.80;100997.72;5058196;28;45267;-45
2021/12/06 09:58:21;;;;;;;;;4.25;2.75;;;;;21.08;34.87;100996.97;5057953;28;46176;-50
2021/12/06 10:00:52;;;;;;;;;3.00;3.00;;;;;21.07;34.80;100995.25;5057776;28;45431;-50
2021/12/06 10:03:23;;;;;;;;;2.50;2.25;;;;;21.05;34.97;100999.75;5057961;28;45402;-46
2021/12/06 10:05:49;;;;;;;;;2.50;2.50;;;;;21.05;34.97;100999.75;5057776;28;45438;-47
2021/12/06 10:08:15;;;;;;;;;4.25;2.50;;;;;21.01;34.45;100999.06;5057692;28;46669;-50
2021/12/06 10:10:41;;;;;;;;;4.00;3.25;;;;;21.00;34.95;100995.56;5058021;28;45489;-47
2021/12/06 10:13:06;;;;;;;;;1.25;1.25;;;;;21.01;34.83;101002.53;5039746;28;45686;-48
2021/12/06 10:15:32;;;;;;;;;1.00;1.00;;;;;20.99;34.59;100996.53;5058020;28;46190;-49
2021/12/06 10:18:01;;;;;;;;;3.75;2.25;;;;;20.93;34.27;100983.69;5057640;28;47143;-52
2021/12/06 10:20:29;;;;;;;;;2.50;2.50;;;;;20.94;34.52;100972.22;5057755;28;45674;-52
2021/12/06 10:22:54;;;;;;;;;2.00;2.00;;;;;20.94;34.33;100969.56;5057723;28;45268;-51
2021/12/06 10:25:32;;;;;;;;;1.75;1.75;;;;;20.92;34.76;100966.16;5057483;28;45217;-54
2021/12/06 10:28:03;;;;;;;;;2.50;1.25;;;;;20.89;34.76;100968.97;5057496;28;45959;-56
2021/12/06 10:30:30;;;;;;;;;1.75;1.75;;;;;20.91;34.41;100961.00;5057219;28;45295;-53
2021/12/06 10:33:24;;;;;;;;;3.00;1.00;;;;;20.88;34.30;100964.66;5057544;28;45438;-54
2021/12/06 10:35:54;;;;;;;;;2.00;1.00;;;;;20.87;34.94;100948.91;5054988;28;45614;-54
2021/12/06 10:38:33;;;;;;;;;2.00;2.00;;;;;20.85;34.56;100936.66;5057045;28;46880;-53
2021/12/06 10:41:07;;;;;;;;;4.50;2.00;;;;;20.86;34.59;100934.91;5057071;28;45545;-58
2021/12/06 10:43:34;;;;;;;;;4.75;2.00;;;;;20.85;34.79;100934.03;5057422;28;45383;-53
2021/12/06 10:46:02;;;;;;;;;3.00;2.00;;;;;20.85;34.72;100935.84;5057427;28;45178;-50
2021/12/06 10:48:34;;;;;;;;;2.00;2.00;;;;;20.86;34.83;100932.28;5057058;28;46518;-54
2021/12/06 10:51:20;;;;;;;;;0.50;0.50;;;;;20.85;34.90;100927.94;5057119;28;45620;-51
2021/12/06 10:53:58;;;;;;;;;2.75;2.00;;;;;20.83;34.53;100919.25;5039085;28;45348;-54
2021/12/06 10:56:33;;;;;;;;;6.00;3.50;;;;;20.84;34.82;100907.78;5057043;28;45530;-51
2021/12/06 10:59:03;;;;;;;;;2.00;2.00;;;;;20.84;34.90;100907.78;5056877;28;46178;-51
2021/12/06 11:01:31;;;;;;;;;4.00;4.00;;;;;20.83;34.44;100908.72;5056793;28;45279;-49
2021/12/06 11:03:58;;;;;;;;;4.00;4.00;;;;;20.81;34.44;100900.91;5056773;28;45344;-52
2021/12/06 11:06:29;;;;;;;;;2.00;2.00;;;;;20.82;34.43;100899.13;5057100;28;45536;-46
2021/12/06 11:09:01;;;;;;;;;4.75;3.00;;;;;20.80;34.51;100900.97;5056579;28;46350;-49
2021/12/06 11:11:35;;;;;;;;;2.50;2.50;;;;;20.78;34.59;100898.44;5056519;28;45765;-49
2021/12/06 11:14:04;;;;;;;;;3.75;3.00;;;;;20.76;35.14;100892.41;5056929;28;45433;-46
2021/12/06 11:16:58;;;;;;;;;3.00;2.00;;;;;20.79;35.08;100899.28;5057024;28;45327;-46
2021/12/06 11:19:26;;;;;;;;;2.00;2.00;;;;;20.75;34.88;100882.81;5054396;28;46384;-46
2021/12/06 11:21:53;;;;;;;;;3.25;3.25;;;;;20.79;34.93;100888.75;5038384;28;45802;-46
2021/12/06 11:24:24;;;;;;;;;3.75;2.00;;;;;20.79;34.92;100894.88;5056493;28;45288;-46
2021/12/06 11:27:02;;;;;;;;;3.00;2.00;;;;;20.79;34.93;100896.66;5056816;28;45541;-46
2021/12/06 11:29:35;;;;;;;;;1.25;1.25;;;;;20.76;34.86;100894.19;5056160;28;45485;-47
2021/12/06 11:32:13;;;;;;;;;3.00;3.00;;;;;20.78;34.54;100902.88;5055464;28;45797;-49
2021/12/06 11:34:46;;;;;;;;;3.25;3.00;;;;;20.76;34.66;100899.47;5056364;28;45307;-47
2021/12/06 11:37:13;;;;;;;;;2.00;2.00;;;;;20.73;34.84;100887.28;5056645;28;45298;-48
2021/12/06 11:39:39;;;;;;;;;2.00;2.00;;;;;20.72;34.62;100882.09;5056307;28;46657;-48
2021/12/06 11:42:04;;;;;;;;;3.00;3.00;;;;;20.71;34.45;100878.63;5038291;28;45684;-49
2021/12/06 11:44:33;;;;;;;;;2.25;1.25;;;;;20.68;34.38;100874.34;5056435;28;45942;-47
2021/12/06 11:47:08;;;;;;;;;2.75;2.00;;;;;20.68;34.86;100866.44;5057988;28;45335;-49
2021/12/06 11:49:38;;;;;;;;;4.00;4.00;;;;;20.64;34.75;100854.41;5059837;28;46791;-52